createdAt,value
2019-02-07T00:01:57.663Z,26.00
2019-02-07T00:04:26.495Z,25.70
2019-02-07T00:06:55.148Z,27.03
2019-02-07T00:09:26.514Z,27.43
2019-02-07T00:11:54.829Z,25.23
2019-02-07T00:14:25.419Z,27.60
2019-02-07T00:16:58.623Z,26.67
2019-02-07T00:19:26.678Z,26.07
2019-02-07T00:21:56.213Z,27.40
2019-02-07T00:24:24.882Z,26.13
2019-02-07T00:26:53.981Z,25.80
2019-02-07T00:29:21.717Z,26.37
2019-02-07T00:31:50.119Z,26.90
2019-02-07T00:34:18.185Z,27.83
2019-02-07T00:36:49.003Z,26.33
2019-02-07T00:39:18.812Z,27.13
2019-02-07T00:41:47.163Z,27.80
2019-02-07T00:44:15.853Z,30.00
2019-02-07T00:46:43.939Z,27.00
2019-02-07T00:49:12.275Z,26.50
2019-02-07T00:51:43.627Z,26.33
2019-02-07T00:54:13.207Z,27.03
2019-02-07T00:56:45.692Z,26.53
2019-02-07T00:59:14.152Z,26.83
2019-02-07T01:01:42.875Z,27.70
2019-02-07T01:04:12.976Z,28.37
2019-02-07T01:06:41.953Z,27.57
2019-02-07T01:09:12.478Z,25.67
2019-02-07T01:11:41.230Z,27.67
2019-02-07T01:14:10.660Z,27.07
2019-02-07T01:16:39.622Z,27.67
2019-02-07T01:19:10.889Z,28.10
2019-02-07T01:21:40.931Z,27.10
2019-02-07T01:24:10.420Z,26.47
2019-02-07T01:26:38.021Z,27.63
2019-02-07T01:29:06.896Z,27.03
2019-02-07T01:31:35.800Z,28.90
2019-02-07T01:34:07.079Z,28.20
2019-02-07T01:36:36.295Z,28.80
2019-02-07T01:39:10.746Z,29.90
2019-02-07T01:41:38.642Z,29.67
2019-02-07T01:44:09.611Z,27.33
2019-02-07T01:46:38.410Z,27.27
2019-02-07T01:49:07.200Z,29.43
2019-02-07T01:51:39.876Z,28.03
2019-02-07T01:54:07.981Z,28.20
2019-02-07T01:56:36.172Z,27.77
2019-02-07T01:59:04.589Z,28.73
2019-02-07T02:01:34.876Z,27.97
2019-02-07T02:04:04.005Z,27.50
2019-02-07T02:06:32.109Z,25.17
2019-02-07T02:09:08.751Z,27.13
2019-02-07T02:11:43.471Z,28.07
2019-02-07T02:14:12.352Z,28.67
2019-02-07T02:16:44.571Z,26.93
2019-02-07T02:19:18.447Z,26.73
2019-02-07T02:21:47.301Z,27.33
2019-02-07T02:24:18.837Z,26.47
2019-02-07T02:26:47.837Z,29.00
2019-02-07T02:29:20.849Z,28.57
2019-02-07T02:31:50.462Z,30.33
2019-02-07T02:34:19.027Z,31.47
2019-02-07T02:36:48.039Z,29.33
2019-02-07T02:39:16.944Z,30.13
2019-02-07T02:41:46.233Z,29.47
2019-02-07T02:44:15.378Z,29.00
2019-02-07T02:46:51.967Z,27.43
2019-02-07T02:49:20.201Z,28.20
2019-02-07T02:51:48.419Z,28.57
2019-02-07T02:54:51.528Z,29.10
2019-02-07T02:57:23.531Z,28.17
2019-02-07T02:59:53.041Z,30.40
2019-02-07T03:02:39.884Z,30.43
2019-02-07T03:05:36.973Z,29.50
2019-02-07T03:08:15.986Z,29.13
2019-02-07T03:11:12.952Z,30.73
2019-02-07T03:14:13.303Z,31.20
2019-02-07T03:17:02.307Z,28.13
2019-02-07T03:19:56.412Z,29.93
2019-02-07T03:22:43.238Z,29.37
2019-02-07T03:25:39.613Z,31.77
2019-02-07T03:28:26.163Z,30.77
2019-02-07T03:31:12.558Z,31.70
2019-02-07T03:34:20.559Z,31.33
2019-02-07T03:36:57.504Z,32.47
2019-02-07T03:39:57.223Z,31.93
2019-02-07T03:42:36.272Z,30.43
2019-02-07T03:45:25.032Z,30.80
2019-02-07T03:48:11.231Z,31.00
2019-02-07T03:51:11.653Z,30.33
2019-02-07T03:54:00.704Z,29.33
2019-02-07T03:56:51.248Z,29.40
2019-02-07T03:59:37.205Z,32.00
2019-02-07T04:02:43.595Z,28.43
2019-02-07T04:05:31.964Z,31.00
2019-02-07T04:08:26.151Z,30.03
2019-02-07T04:11:23.956Z,30.33
2019-02-07T04:14:10.328Z,31.00
2019-02-07T04:17:07.155Z,23.97
2019-02-07T04:19:58.995Z,30.30
2019-02-07T04:22:58.220Z,31.53
2019-02-07T04:25:44.551Z,31.07
2019-02-07T04:28:41.627Z,29.67
2019-02-07T04:31:38.541Z,31.63
2019-02-07T04:34:29.480Z,29.90
2019-02-07T04:37:20.440Z,32.03
2019-02-07T04:40:12.685Z,30.07
2019-02-07T04:42:59.624Z,29.90
2019-02-07T04:45:47.397Z,30.23
2019-02-07T04:48:35.176Z,28.70
2019-02-07T04:51:23.847Z,30.23
2019-02-07T04:54:10.396Z,28.37
2019-02-07T04:56:51.236Z,29.07
2019-02-07T04:59:57.510Z,27.77
2019-02-07T05:03:04.188Z,28.73
2019-02-07T05:05:52.429Z,29.27
2019-02-07T05:08:32.478Z,29.80
2019-02-07T05:11:35.643Z,30.37
2019-02-07T05:14:22.614Z,28.60
2019-02-07T05:17:16.772Z,29.17
2019-02-07T05:20:07.748Z,27.53
2019-02-07T05:22:56.594Z,28.70
2019-02-07T05:25:45.188Z,30.03
2019-02-07T05:28:34.076Z,27.03
2019-02-07T05:31:07.168Z,30.33
2019-02-07T05:33:57.472Z,29.77
2019-02-07T05:36:43.865Z,30.50
2019-02-07T05:39:29.982Z,28.63
2019-02-07T05:42:26.854Z,29.27
2019-02-07T05:45:16.411Z,30.37
2019-02-07T05:48:08.257Z,28.63
2019-02-07T05:51:08.809Z,28.27
2019-02-07T05:53:56.768Z,30.60
2019-02-07T05:56:47.525Z,29.77
2019-02-07T05:59:39.288Z,31.47
2019-02-07T06:02:29.231Z,31.80
2019-02-07T06:05:16.103Z,31.00
2019-02-07T06:08:26.164Z,29.10
2019-02-07T06:11:15.333Z,30.43
2019-02-07T06:14:01.861Z,28.67
2019-02-07T06:16:48.747Z,30.73
2019-02-07T06:19:37.083Z,30.00
2019-02-07T06:22:27.565Z,30.63
2019-02-07T06:25:24.264Z,28.50
2019-02-07T06:28:11.445Z,29.03
2019-02-07T06:31:02.437Z,28.37
2019-02-07T06:34:07.575Z,24.77
2019-02-07T06:36:56.407Z,29.93
2019-02-07T06:39:47.485Z,32.77
2019-02-07T06:42:24.709Z,29.30
2019-02-07T06:45:11.785Z,28.40
2019-02-07T06:47:59.448Z,30.63
2019-02-07T06:50:49.480Z,28.23
2019-02-07T06:53:37.004Z,27.77
2019-02-07T06:56:15.143Z,31.63
2019-02-07T06:59:03.241Z,29.03
2019-02-07T07:01:53.512Z,29.90
2019-02-07T07:04:50.302Z,24.67
2019-02-07T07:07:38.167Z,29.70
2019-02-07T07:10:34.996Z,28.10
2019-02-07T07:13:21.752Z,27.03
2019-02-07T07:16:08.754Z,28.73
2019-02-07T07:19:08.726Z,27.57
2019-02-07T07:21:55.750Z,26.60
2019-02-07T07:24:50.210Z,27.80
2019-02-07T07:27:37.781Z,27.43
2019-02-07T07:30:23.667Z,25.60
2019-02-07T07:33:26.692Z,26.53
2019-02-07T07:36:19.473Z,24.13
2019-02-07T07:39:28.247Z,28.17
2019-02-07T07:42:20.923Z,25.33
2019-02-07T07:45:18.843Z,26.07
2019-02-07T07:48:19.500Z,25.47
2019-02-07T07:51:22.319Z,25.27
2019-02-07T07:54:15.173Z,25.60
2019-02-07T07:57:54.178Z,23.37
2019-02-07T08:00:50.872Z,25.53
2019-02-07T08:03:42.019Z,23.10
2019-02-07T08:06:20.659Z,23.37
2019-02-07T08:08:58.404Z,22.13
2019-02-07T08:11:49.131Z,22.53
2019-02-07T08:14:36.005Z,24.10
2019-02-07T08:17:16.216Z,23.67
2019-02-07T08:20:09.895Z,22.83
2019-02-07T08:22:56.943Z,22.97
2019-02-07T08:25:43.405Z,26.17
2019-02-07T08:28:30.127Z,23.93
2019-02-07T08:31:13.371Z,23.30
2019-02-07T08:33:59.872Z,23.00
2019-02-07T08:36:48.665Z,23.20
2019-02-07T08:39:34.909Z,22.40
2019-02-07T08:42:21.802Z,22.83
2019-02-07T08:45:04.435Z,21.77
2019-02-07T08:47:58.393Z,21.73
2019-02-07T08:50:58.060Z,19.93
2019-02-07T08:54:03.846Z,20.67
2019-02-07T08:56:56.483Z,23.70
2019-02-07T08:59:48.071Z,22.60
2019-02-07T09:02:30.050Z,21.97
2019-02-07T09:05:18.682Z,21.67
2019-02-07T09:08:06.152Z,20.37
2019-02-07T09:10:43.165Z,21.90
2019-02-07T09:13:27.435Z,18.83
2019-02-07T09:16:16.072Z,20.43
2019-02-07T09:19:00.323Z,20.57
2019-02-07T09:22:05.652Z,20.27
2019-02-07T09:25:02.668Z,20.73
2019-02-07T09:28:02.638Z,20.73
2019-02-07T09:30:51.437Z,22.27
2019-02-07T09:33:54.896Z,20.30
2019-02-07T09:36:46.123Z,23.27
2019-02-07T09:39:31.596Z,23.00
2019-02-07T09:42:25.759Z,22.47
2019-02-07T09:45:16.589Z,21.47
2019-02-07T09:48:21.698Z,22.83
2019-02-07T09:51:07.883Z,23.63
2019-02-07T09:54:00.985Z,23.57
2019-02-07T09:56:52.150Z,22.30
2019-02-07T09:59:38.251Z,24.67
2019-02-07T10:02:34.829Z,24.40
2019-02-07T10:05:21.957Z,23.10
2019-02-07T10:08:08.238Z,26.03
2019-02-07T10:10:43.744Z,24.00
2019-02-07T10:13:30.083Z,24.50
2019-02-07T10:16:16.079Z,23.27
2019-02-07T10:18:55.598Z,24.60
2019-02-07T10:21:51.198Z,25.37
2019-02-07T10:24:50.933Z,26.03
2019-02-07T10:27:48.050Z,26.80
2019-02-07T10:30:36.941Z,25.07
2019-02-07T10:33:33.659Z,24.67
2019-02-07T10:36:21.764Z,25.43
2019-02-07T10:39:31.099Z,24.20
2019-02-07T10:42:24.103Z,27.20
2019-02-07T10:45:17.155Z,25.90
2019-02-07T10:48:07.336Z,24.50
2019-02-07T10:51:00.895Z,25.80
2019-02-07T10:53:51.360Z,25.83
2019-02-07T10:56:50.546Z,26.87
2019-02-07T10:59:30.174Z,26.63
2019-02-07T11:02:18.896Z,26.20
2019-02-07T11:05:05.299Z,27.70
2019-02-07T11:08:11.111Z,28.90
2019-02-07T11:10:54.705Z,35.00
2019-02-07T11:13:40.418Z,29.30
2019-02-07T11:16:37.046Z,31.33
2019-02-07T11:19:33.156Z,26.63
2019-02-07T11:22:24.371Z,23.60
2019-02-07T11:25:13.620Z,33.67
2019-02-07T11:28:10.799Z,38.80
2019-02-07T11:31:10.051Z,27.97
2019-02-07T11:34:12.816Z,26.87
2019-02-07T11:37:06.994Z,24.37
2019-02-07T11:40:03.172Z,24.97
2019-02-07T11:42:51.881Z,25.70
2019-02-07T11:45:38.786Z,25.30
2019-02-07T11:48:29.873Z,27.10
2019-02-07T11:51:15.640Z,27.50
2019-02-07T11:54:03.699Z,31.03
2019-02-07T11:56:52.318Z,32.37
2019-02-07T11:59:46.863Z,28.33
2019-02-07T12:02:34.025Z,29.77
2019-02-07T12:05:19.886Z,27.60
2019-02-07T12:08:19.951Z,27.73
2019-02-07T12:11:16.213Z,26.43
2019-02-07T12:14:02.003Z,25.70
2019-02-07T12:16:50.766Z,27.13
2019-02-07T12:19:34.342Z,27.97
2019-02-07T12:22:16.047Z,29.53
2019-02-07T12:25:00.380Z,28.03
2019-02-07T12:27:51.066Z,29.20
2019-02-07T12:30:37.701Z,27.00
2019-02-07T12:33:14.126Z,26.60
2019-02-07T12:35:53.382Z,26.53
2019-02-07T12:38:41.270Z,26.17
2019-02-07T12:44:30.792Z,25.30
2019-02-07T12:47:25.498Z,23.57
2019-02-07T12:50:12.767Z,25.23
2019-02-07T12:53:15.978Z,24.67
2019-02-07T12:56:08.803Z,23.97
2019-02-07T12:58:54.463Z,24.07
2019-02-07T13:01:34.981Z,23.83
2019-02-07T13:04:31.536Z,27.10
2019-02-07T13:07:23.714Z,25.37
2019-02-07T13:10:05.511Z,25.53
2019-02-07T13:12:44.625Z,26.93
2019-02-07T13:15:31.715Z,31.37
2019-02-07T13:18:24.859Z,30.83
2019-02-07T13:21:16.584Z,28.10
2019-02-07T13:24:11.981Z,26.80
2019-02-07T13:26:57.488Z,26.47
2019-02-07T13:29:40.108Z,26.70
2019-02-07T13:32:28.899Z,25.80
2019-02-07T13:35:25.647Z,27.00
2019-02-07T13:38:13.566Z,27.50
2019-02-07T13:41:07.724Z,26.90
2019-02-07T13:43:57.836Z,25.97
2019-02-07T13:46:51.716Z,25.87
2019-02-07T13:49:52.926Z,25.53
2019-02-07T13:52:34.403Z,25.57
2019-02-07T13:55:21.944Z,23.77
2019-02-07T13:58:24.758Z,25.57
2019-02-07T14:01:10.951Z,22.83
2019-02-07T14:04:01.227Z,26.53
2019-02-07T14:06:51.910Z,23.80
2019-02-07T14:09:40.818Z,24.40
2019-02-07T14:12:31.583Z,24.67
2019-02-07T14:15:24.834Z,25.83
2019-02-07T14:18:17.608Z,24.63
2019-02-07T14:21:07.860Z,25.73
2019-02-07T14:24:03.729Z,23.03
2019-02-07T14:27:00.402Z,25.73
2019-02-07T14:29:48.464Z,26.40
2019-02-07T14:32:38.759Z,27.40
2019-02-07T14:35:26.362Z,26.27
2019-02-07T14:38:14.504Z,27.53
2019-02-07T14:40:57.186Z,24.67
2019-02-07T14:43:40.987Z,26.67
2019-02-07T14:46:23.453Z,26.50
2019-02-07T14:48:52.114Z,24.53
2019-02-07T14:51:21.057Z,26.83
2019-02-07T14:53:49.376Z,25.37
2019-02-07T14:56:18.890Z,26.23
2019-02-07T14:58:50.685Z,24.57
2019-02-07T15:01:18.946Z,24.83
2019-02-07T15:03:48.573Z,24.87
2019-02-07T15:06:18.403Z,24.40
2019-02-07T15:08:45.965Z,26.40
2019-02-07T15:11:14.108Z,24.97
2019-02-07T15:13:43.586Z,24.93
2019-02-07T15:16:11.938Z,27.37
2019-02-07T15:18:41.721Z,25.40
2019-02-07T15:21:11.071Z,25.40
2019-02-07T15:23:39.169Z,25.20
2019-02-07T15:26:08.472Z,25.70
2019-02-07T15:28:39.536Z,24.17
2019-02-07T15:31:08.085Z,27.37
2019-02-07T15:33:36.994Z,23.47
2019-02-07T15:36:05.949Z,24.00
2019-02-07T15:38:34.545Z,24.77
2019-02-07T15:41:02.351Z,24.80
2019-02-07T15:43:30.022Z,25.20
2019-02-07T15:45:58.456Z,25.23
2019-02-07T15:48:26.911Z,25.00
2019-02-07T15:50:56.896Z,27.03
2019-02-07T15:53:25.739Z,26.33
2019-02-07T15:55:57.276Z,25.60
2019-02-07T15:58:37.562Z,25.50
2019-02-07T16:01:21.865Z,24.60
2019-02-07T16:04:01.639Z,27.83
2019-02-07T16:06:30.658Z,26.17
2019-02-07T16:09:00.183Z,26.83
2019-02-07T16:11:29.730Z,26.23
2019-02-07T16:13:59.631Z,25.37
2019-02-07T16:16:27.204Z,27.27
2019-02-07T16:18:55.592Z,25.20
2019-02-07T16:21:27.230Z,27.47
2019-02-07T16:23:56.756Z,27.27
2019-02-07T16:26:37.715Z,28.13
2019-02-07T16:29:09.295Z,27.43
2019-02-07T16:31:42.246Z,27.20
2019-02-07T16:34:12.495Z,27.37
2019-02-07T16:36:42.075Z,26.87
2019-02-07T16:39:12.087Z,27.90
2019-02-07T16:41:42.040Z,28.20
2019-02-07T16:44:11.132Z,29.60
2019-02-07T16:46:43.598Z,28.20
2019-02-07T16:49:13.349Z,28.73
2019-02-07T16:51:47.307Z,28.70
2019-02-07T16:54:20.061Z,30.70
2019-02-07T16:56:51.737Z,29.67
2019-02-07T16:59:23.764Z,28.93
2019-02-07T17:02:04.988Z,27.37
2019-02-07T17:04:38.483Z,28.73
2019-02-07T17:07:10.069Z,28.10
2019-02-07T17:09:44.443Z,28.10
2019-02-07T17:12:21.804Z,28.77
2019-02-07T17:14:54.375Z,30.60
2019-02-07T17:17:24.225Z,29.60
2019-02-07T17:19:56.653Z,32.70
2019-02-07T17:22:25.507Z,29.43
2019-02-07T17:24:55.105Z,30.03
2019-02-07T17:27:24.998Z,30.53
2019-02-07T17:29:58.128Z,33.73
2019-02-07T17:32:27.972Z,33.57
2019-02-07T17:34:58.352Z,34.43
2019-02-07T17:37:31.737Z,34.43
2019-02-07T17:39:59.716Z,35.10
2019-02-07T17:42:29.252Z,34.57
2019-02-07T17:45:01.086Z,36.13
2019-02-07T17:47:33.472Z,35.17
2019-02-07T17:50:10.429Z,34.70
2019-02-07T17:52:40.948Z,32.73
2019-02-07T17:55:16.078Z,33.00
2019-02-07T17:57:51.883Z,35.43
2019-02-07T18:00:50.132Z,32.93
2019-02-07T18:03:19.863Z,34.23
2019-02-07T18:05:51.778Z,35.93
2019-02-07T18:08:22.382Z,36.23
2019-02-07T18:10:52.012Z,35.50
2019-02-07T18:13:21.755Z,37.17
2019-02-07T18:15:51.157Z,38.63
2019-02-07T18:18:21.886Z,37.33
2019-02-07T18:20:53.194Z,45.70
2019-02-07T18:23:23.403Z,40.77
2019-02-07T18:25:52.715Z,37.50
2019-02-07T18:28:22.381Z,38.13
2019-02-07T18:30:54.846Z,38.73
2019-02-07T18:33:23.499Z,38.27
2019-02-07T18:35:51.693Z,39.27
2019-02-07T18:38:20.926Z,39.27
2019-02-07T18:40:49.725Z,40.97
2019-02-07T18:43:18.286Z,40.87
2019-02-07T18:45:48.524Z,41.13
2019-02-07T18:48:17.809Z,41.50
2019-02-07T18:50:50.432Z,47.53
2019-02-07T18:53:25.589Z,44.23
2019-02-07T18:55:56.841Z,43.53
2019-02-07T18:58:26.525Z,43.87
2019-02-07T19:01:04.088Z,43.73
2019-02-07T19:03:33.033Z,42.67
2019-02-07T19:06:01.968Z,45.43
2019-02-07T19:08:31.086Z,44.77
2019-02-07T19:10:58.748Z,44.50
2019-02-07T19:13:26.783Z,47.53
2019-02-07T19:15:59.517Z,44.43
2019-02-07T19:18:27.839Z,44.20
2019-02-07T19:20:58.254Z,44.67
2019-02-07T19:23:26.554Z,46.23
2019-02-07T19:25:57.621Z,48.13
2019-02-07T19:28:25.692Z,46.57
2019-02-07T19:30:53.980Z,46.40
2019-02-07T19:33:22.602Z,48.20
2019-02-07T19:35:51.369Z,49.57
2019-02-07T19:38:20.696Z,50.23
2019-02-07T19:40:48.765Z,51.20
2019-02-07T19:43:16.461Z,51.37
2019-02-07T19:45:45.483Z,50.37
2019-02-07T19:48:16.392Z,50.67
2019-02-07T19:50:44.871Z,51.63
2019-02-07T19:53:13.345Z,50.90
2019-02-07T19:55:42.258Z,49.70
2019-02-07T19:58:11.187Z,47.33
2019-02-07T20:00:39.428Z,48.87
2019-02-07T20:03:08.050Z,50.30
2019-02-07T20:05:36.306Z,49.20
2019-02-07T20:08:05.252Z,51.47
2019-02-07T20:10:37.881Z,51.40
2019-02-07T20:13:09.642Z,50.00
2019-02-07T20:15:40.770Z,49.40
2019-02-07T20:18:10.894Z,50.53
2019-02-07T20:20:40.736Z,49.07
2019-02-07T20:23:09.063Z,46.90
2019-02-07T20:25:38.775Z,48.00
2019-02-07T20:28:06.262Z,49.47
2019-02-07T20:30:39.481Z,49.23
2019-02-07T20:33:08.733Z,49.90
2019-02-07T20:35:37.699Z,50.70
2019-02-07T20:38:09.200Z,51.97
2019-02-07T20:40:37.140Z,55.90
2019-02-07T20:43:09.513Z,53.87
2019-02-07T20:45:37.135Z,49.40
2019-02-07T20:48:08.953Z,51.27
2019-02-07T20:50:36.593Z,52.70
2019-02-07T20:53:07.079Z,50.67
2019-02-07T20:55:35.295Z,48.77
2019-02-07T20:58:04.381Z,48.97
2019-02-07T21:00:36.976Z,51.53
2019-02-07T21:03:06.152Z,49.83
2019-02-07T21:05:34.495Z,48.47
2019-02-07T21:08:02.069Z,47.30
2019-02-07T21:10:34.618Z,46.67
2019-02-07T21:13:03.008Z,46.03
2019-02-07T21:15:34.807Z,46.33
2019-02-07T21:18:06.563Z,47.47
2019-02-07T21:20:36.793Z,46.90
2019-02-07T21:23:05.434Z,49.23
2019-02-07T21:25:41.035Z,44.20
2019-02-07T21:28:12.820Z,48.97
2019-02-07T21:30:40.581Z,50.17
2019-02-07T21:33:08.764Z,43.80
2019-02-07T21:35:43.144Z,44.40
2019-02-07T21:38:11.050Z,43.80
2019-02-07T21:40:40.188Z,40.27
2019-02-07T21:43:08.169Z,43.90
2019-02-07T21:45:36.631Z,46.00
2019-02-07T21:48:10.340Z,43.07
2019-02-07T21:50:37.943Z,42.07
2019-02-07T21:53:06.173Z,39.47
2019-02-07T21:55:35.625Z,40.83
2019-02-07T21:58:04.737Z,39.77
2019-02-07T22:00:38.588Z,41.00
2019-02-07T22:03:08.845Z,40.43
2019-02-07T22:05:38.483Z,36.07
2019-02-07T22:08:08.276Z,36.57
2019-02-07T22:10:36.554Z,35.47
2019-02-07T22:13:05.582Z,41.40
2019-02-07T22:15:33.211Z,35.33
2019-02-07T22:18:01.661Z,36.80
2019-02-07T22:20:31.841Z,36.57
2019-02-07T22:23:00.924Z,35.33
2019-02-07T22:25:28.806Z,34.47
2019-02-07T22:27:58.125Z,37.23
2019-02-07T22:30:29.996Z,37.90
2019-02-07T22:33:02.443Z,38.07
2019-02-07T22:35:30.854Z,33.57
2019-02-07T22:37:58.786Z,30.10
2019-02-07T22:40:30.588Z,34.67
2019-02-07T22:43:00.454Z,33.23
2019-02-07T22:45:28.689Z,34.67
2019-02-07T22:47:57.045Z,38.37
2019-02-07T22:50:27.941Z,34.67
2019-02-07T22:52:57.099Z,33.17
2019-02-07T22:55:26.608Z,30.87
2019-02-07T22:57:59.312Z,28.60
2019-02-07T23:01:11.162Z,30.77
2019-02-07T23:03:53.181Z,28.27
2019-02-07T23:06:24.583Z,30.13
2019-02-07T23:08:52.432Z,29.70
2019-02-07T23:11:23.083Z,28.90
2019-02-07T23:13:51.073Z,28.40
2019-02-07T23:16:20.673Z,32.40
2019-02-07T23:18:48.762Z,32.20
2019-02-07T23:21:16.815Z,29.03
2019-02-07T23:23:44.751Z,31.07
2019-02-07T23:26:13.009Z,30.43
2019-02-07T23:28:40.984Z,27.50
2019-02-07T23:31:10.908Z,25.20
2019-02-07T23:33:39.260Z,27.13
2019-02-07T23:36:09.447Z,26.43
2019-02-07T23:38:38.282Z,27.50
2019-02-07T23:41:07.888Z,26.20
2019-02-07T23:43:37.634Z,24.03
2019-02-07T23:46:05.786Z,22.50
2019-02-07T23:48:33.829Z,21.87
2019-02-07T23:51:22.186Z,21.13
2019-02-07T23:53:50.911Z,20.40
2019-02-07T23:56:19.707Z,19.77
2019-02-07T23:58:48.441Z,17.67
